Time;durP1;ratioP1;P1;durP2;ratioP2;P2;SDS_P1;SDS_P2;PMS_P1;PMS_P2;Temp;Humidity;BMP_temperature;BMP_pressure;BME280_temperature;BME280_humidity;BME280_pressure;Samples;Min_cycle;Max_cycle;Signal;HPM_P1;HPM_P2
2024/01/01 00:01:41;;;;;;;3.30;2.17;;;;;;;;;;5051576;28;21130;-68
2024/01/01 00:04:08;;;;;;;10.50;2.37;;;8.60;99.90;;;;;;5041318;28;20989;-71
2024/01/01 00:06:35;;;;;;;15.80;2.40;;;8.40;99.90;;;;;;5033372;28;20576;-71
2024/01/01 00:09:02;;;;;;;2.93;1.07;;;8.40;99.90;;;;;;5063490;28;20574;-69
2024/01/01 00:11:30;;;;;;;3.53;2.00;;;8.50;99.90;;;;;;5054571;28;20684;-70
2024/01/01 00:13:57;;;;;;;5.47;1.97;;;8.50;99.90;;;;;;5055709;28;20520;-70
2024/01/01 00:16:24;;;;;;;3.53;2.00;;;8.40;99.90;;;;;;5056172;28;20555;-69
2024/01/01 00:18:52;;;;;;;5.20;2.10;;;8.40;99.90;;;;;;5054686;28;20529;-67
2024/01/01 00:21:18;;;;;;;3.70;1.57;;;8.40;99.90;;;;;;5049870;28;20953;-68
2024/01/01 00:23:45;;;;;;;21.03;3.10;;;8.30;99.90;;;;;;5042497;28;20599;-66
2024/01/01 00:26:12;;;;;;;3.90;1.70;;;;;;;;;;5027531;28;20555;-67
2024/01/01 00:28:40;;;;;;;15.27;2.50;;;8.40;99.90;;;;;;5029774;28;20480;-71
2024/01/01 00:31:07;;;;;;;9.07;1.90;;;8.40;99.90;;;;;;5020872;28;21004;-68
2024/01/01 00:33:34;;;;;;;5.90;1.83;;;8.30;99.90;;;;;;5032910;28;20850;-67
2024/01/01 00:36:01;;;;;;;8.93;1.60;;;8.20;99.90;;;;;;5030557;28;20871;-69
2024/01/01 00:38:28;;;;;;;11.80;2.13;;;8.40;99.90;;;;;;5029478;28;20796;-71
2024/01/01 00:40:54;;;;;;;5.10;2.17;;;8.40;99.90;;;;;;5012575;28;20505;-69
2024/01/01 00:43:21;;;;;;;8.93;2.50;;;8.40;99.90;;;;;;5036391;28;20557;-67
2024/01/01 00:45:49;;;;;;;5.03;1.50;;;8.40;99.90;;;;;;5055073;28;20572;-68
2024/01/01 00:48:16;;;;;;;3.90;1.00;;;8.50;99.90;;;;;;5023934;28;20559;-68
2024/01/01 00:50:44;;;;;;;4.43;1.10;;;8.30;99.90;;;;;;5031005;28;20590;-70
2024/01/01 00:53:11;;;;;;;4.10;1.43;;;8.30;99.90;;;;;;5043582;28;20484;-69
2024/01/01 00:55:38;;;;;;;3.30;1.30;;;8.30;99.90;;;;;;5027847;28;20484;-71
2024/01/01 00:58:06;;;;;;;5.13;2.07;;;8.30;99.90;;;;;;5030072;28;20579;-66
2024/01/01 01:00:32;;;;;;;11.20;2.67;;;8.30;99.90;;;;;;5026092;28;20754;-66
2024/01/01 01:03:01;;;;;;;13.00;2.20;;;8.30;99.90;;;;;;5028011;28;21132;-69
2024/01/01 01:05:27;;;;;;;8.37;2.17;;;8.30;99.90;;;;;;5048644;28;20565;-71
2024/01/01 01:07:54;;;;;;;2.97;1.40;;;8.10;99.90;;;;;;5006922;28;20515;-70
2024/01/01 01:10:21;;;;;;;7.60;1.67;;;8.20;99.90;;;;;;5004640;28;20512;-68
2024/01/01 01:12:48;;;;;;;16.20;3.07;;;8.10;99.90;;;;;;5046748;28;20482;-68
2024/01/01 01:15:14;;;;;;;6.07;1.73;;;8.20;99.90;;;;;;5026653;28;20591;-68
2024/01/01 01:17:41;;;;;;;10.47;3.07;;;8.10;99.90;;;;;;5038602;28;20973;-67
2024/01/01 01:20:10;;;;;;;4.97;1.77;;;8.10;99.90;;;;;;5019665;28;20796;-71
2024/01/01 01:22:37;;;;;;;12.50;1.60;;;8.30;99.90;;;;;;5019592;28;20479;-71
2024/01/01 01:25:04;;;;;;;9.73;1.27;;;8.30;99.90;;;;;;5053322;28;20554;-72
2024/01/01 01:27:31;;;;;;;3.30;1.97;;;8.30;99.90;;;;;;5031350;28;20942;-73
2024/01/01 01:29:58;;;;;;;3.27;1.40;;;8.30;99.90;;;;;;5023355;28;20527;-71
2024/01/01 01:32:25;;;;;;;8.03;2.10;;;8.10;99.90;;;;;;5045392;28;20558;-70
2024/01/01 01:34:52;;;;;;;6.57;1.60;;;8.20;99.90;;;;;;5021598;28;20589;-68
2024/01/01 01:37:20;;;;;;;14.50;2.00;;;8.20;99.90;;;;;;5040363;28;20568;-70
2024/01/01 01:39:47;;;;;;;7.50;2.20;;;8.20;99.90;;;;;;5025069;28;20770;-68
2024/01/01 01:42:14;;;;;;;7.00;1.77;;;8.20;99.90;;;;;;5035658;28;20476;-70
2024/01/01 01:44:41;;;;;;;16.80;2.27;;;8.10;99.90;;;;;;5032154;28;20591;-67
2024/01/01 01:47:08;;;;;;;4.10;1.57;;;8.20;99.90;;;;;;5032233;28;20545;-71
2024/01/01 01:49:35;;;;;;;15.23;1.70;;;8.30;99.90;;;;;;5027977;28;20487;-72
2024/01/01 01:52:03;;;;;;;13.70;1.63;;;8.30;99.90;;;;;;5033663;28;20566;-67
2024/01/01 01:54:35;;;;;;;5.47;2.30;;;8.10;99.90;;;;;;5022486;28;20483;-70
2024/01/01 01:57:02;;;;;;;4.57;1.90;;;8.20;99.90;;;;;;5035555;28;20484;-70
2024/01/01 01:59:30;;;;;;;16.33;2.03;;;8.30;99.90;;;;;;5034511;28;20565;-69
2024/01/01 02:01:57;;;;;;;6.63;1.97;;;8.20;99.90;;;;;;5054307;28;21039;-69
2024/01/01 02:04:24;;;;;;;7.47;0.87;;;8.20;99.90;;;;;;5022196;28;20554;-69
2024/01/01 02:06:51;;;;;;;4.43;1.50;;;8.10;99.90;;;;;;5018233;28;20476;-67
2024/01/01 02:09:18;;;;;;;2.70;1.43;;;8.20;99.90;;;;;;5043464;28;20503;-70
2024/01/01 02:11:46;;;;;;;17.17;2.40;;;8.20;99.90;;;;;;5017168;28;20545;-71
2024/01/01 02:14:15;;;;;;;3.70;1.20;;;8.10;99.90;;;;;;5028596;28;20509;-69
2024/01/01 02:16:44;;;;;;;4.77;1.80;;;8.10;99.90;;;;;;5042026;28;20835;-71
2024/01/01 02:19:17;;;;;;;9.70;2.13;;;8.10;99.90;;;;;;5040007;28;20519;-71
2024/01/01 02:21:44;;;;;;;13.23;2.27;;;7.90;99.90;;;;;;5035720;28;20480;-67
2024/01/01 02:24:12;;;;;;;13.77;3.00;;;7.80;99.90;;;;;;5045951;28;20566;-71
2024/01/01 02:26:39;;;;;;;7.20;1.80;;;7.80;99.90;;;;;;5030553;28;20526;-69
2024/01/01 02:29:06;;;;;;;7.93;1.43;;;7.60;99.90;;;;;;5031140;28;20487;-70
2024/01/01 02:31:32;;;;;;;7.13;2.00;;;7.80;99.90;;;;;;5035066;28;21039;-72
2024/01/01 02:33:59;;;;;;;8.37;2.27;;;7.50;99.90;;;;;;5028563;28;20922;-69
2024/01/01 02:36:28;;;;;;;12.97;3.50;;;7.60;99.90;;;;;;5047856;28;20990;-69
2024/01/01 02:38:55;;;;;;;6.70;2.00;;;7.50;99.90;;;;;;5049318;28;20570;-70
2024/01/01 02:41:23;;;;;;;19.13;3.67;;;7.40;99.90;;;;;;5046717;28;20498;-69
2024/01/01 02:43:50;;;;;;;10.30;3.27;;;7.50;99.90;;;;;;5043043;28;20563;-70
2024/01/01 02:46:17;;;;;;;19.53;3.80;;;7.60;99.90;;;;;;5035690;28;20563;-70
2024/01/01 02:48:43;;;;;;;3.93;1.07;;;7.70;99.90;;;;;;5035559;28;20506;-77
2024/01/01 02:51:10;;;;;;;6.07;1.80;;;7.50;99.90;;;;;;5046826;28;20567;-69
2024/01/01 02:53:37;;;;;;;24.23;2.60;;;7.60;99.90;;;;;;5048363;28;20551;-71
2024/01/01 02:56:04;;;;;;;11.43;2.53;;;7.70;99.90;;;;;;5039963;28;20541;-70
2024/01/01 02:58:32;;;;;;;19.27;3.37;;;7.70;99.90;;;;;;5039191;28;20482;-71
2024/01/01 03:00:59;;;;;;;7.43;2.13;;;7.60;99.90;;;;;;5048893;28;20583;-69
2024/01/01 03:03:26;;;;;;;13.70;2.67;;;7.70;99.90;;;;;;5055216;28;20562;-70
2024/01/01 03:05:53;;;;;;;8.13;2.43;;;7.70;99.90;;;;;;5025897;28;20548;-70
2024/01/01 03:08:20;;;;;;;15.13;3.40;;;7.60;99.90;;;;;;5030126;28;20515;-73
2024/01/01 03:10:46;;;;;;;11.00;2.40;;;7.70;99.90;;;;;;5051618;28;20515;-77
2024/01/01 03:13:13;;;;;;;2.43;1.43;;;7.60;99.90;;;;;;5038323;28;21030;-74
2024/01/01 03:15:41;;;;;;;10.33;1.37;;;7.70;99.90;;;;;;5043128;28;21041;-79
2024/01/01 03:18:11;;;;;;;12.43;3.83;;;7.70;99.90;;;;;;5056282;28;20566;-67
2024/01/01 03:20:38;;;;;;;17.77;3.30;;;7.50;99.90;;;;;;5036474;28;20471;-68
2024/01/01 03:23:05;;;;;;;10.47;1.73;;;7.50;99.90;;;;;;5049649;28;20912;-67
2024/01/01 03:25:32;;;;;;;7.53;2.40;;;7.60;99.90;;;;;;5050513;28;20937;-67
2024/01/01 03:27:58;;;;;;;9.30;2.93;;;7.60;99.90;;;;;;5038749;28;20569;-73
2024/01/01 03:30:26;;;;;;;8.87;2.73;;;7.50;99.90;;;;;;5049414;28;20578;-72
2024/01/01 03:32:54;;;;;;;5.97;2.00;;;7.60;99.90;;;;;;5040416;28;20585;-73
2024/01/01 03:35:21;;;;;;;16.80;2.37;;;7.50;99.90;;;;;;5012746;28;20476;-72
2024/01/01 03:37:48;;;;;;;4.53;1.63;;;7.40;99.90;;;;;;5038138;28;20978;-73
2024/01/01 03:40:15;;;;;;;5.33;1.70;;;7.50;99.90;;;;;;5042454;28;21096;-79
2024/01/01 03:42:42;;;;;;;16.30;3.00;;;7.50;99.90;;;;;;5054550;28;20963;-74
2024/01/01 03:45:09;;;;;;;6.60;1.20;;;7.50;99.90;;;;;;5044073;28;20816;-79
2024/01/01 03:47:36;;;;;;;5.87;1.53;;;7.50;99.90;;;;;;5040807;28;20508;-76
2024/01/01 03:50:06;;;;;;;10.93;2.63;;;7.50;99.90;;;;;;5042896;28;20479;-77
2024/01/01 03:52:33;;;;;;;7.83;2.00;;;7.50;99.90;;;;;;5057733;28;20475;-74
2024/01/01 03:55:00;;;;;;;12.00;3.60;;;7.50;99.90;;;;;;5034329;28;20738;-74
2024/01/01 03:57:27;;;;;;;9.73;1.43;;;7.60;99.90;;;;;;5049737;28;20837;-73
2024/01/01 03:59:54;;;;;;;2.10;1.13;;;7.50;99.90;;;;;;5041644;28;20562;-72
2024/01/01 04:02:21;;;;;;;5.37;2.50;;;7.50;99.90;;;;;;5017686;28;20536;-73
2024/01/01 04:04:49;;;;;;;4.23;1.47;;;7.50;99.90;;;;;;5048231;28;20561;-72
2024/01/01 04:07:18;;;;;;;10.93;1.93;;;7.60;99.90;;;;;;5049233;28;21024;-72
2024/01/01 04:09:45;;;;;;;13.20;2.03;;;7.50;99.90;;;;;;5052863;28;20570;-72
2024/01/01 04:12:11;;;;;;;13.37;3.97;;;7.40;99.90;;;;;;5043192;28;20753;-73
2024/01/01 04:14:39;;;;;;;13.53;2.63;;;7.40;99.90;;;;;;5054300;28;20557;-70
2024/01/01 04:17:06;;;;;;;12.60;3.27;;;7.30;99.90;;;;;;5040860;28;20479;-73
2024/01/01 04:19:33;;;;;;;12.27;3.43;;;7.40;99.90;;;;;;5015805;28;20569;-72
2024/01/01 04:21:59;;;;;;;13.47;1.77;;;7.40;99.90;;;;;;5043961;28;20914;-72
2024/01/01 04:24:28;;;;;;;10.10;2.27;;;7.30;99.90;;;;;;5040915;28;20478;-72
2024/01/01 04:26:54;;;;;;;12.83;2.20;;;7.40;99.90;;;;;;5004156;28;20910;-74
2024/01/01 04:29:21;;;;;;;28.37;3.93;;;7.40;99.90;;;;;;5036958;28;21353;-75
2024/01/01 04:31:48;;;;;;;9.60;2.30;;;7.50;99.90;;;;;;5053706;28;20505;-74
2024/01/01 04:34:15;;;;;;;12.77;2.53;;;7.50;99.90;;;;;;5042702;28;20920;-74
2024/01/01 04:36:42;;;;;;;11.90;3.17;;;7.40;99.90;;;;;;5024486;28;21117;-74
2024/01/01 04:39:08;;;;;;;15.23;3.57;;;7.50;99.90;;;;;;5044564;28;20502;-71
2024/01/01 04:41:37;;;;;;;2.47;1.10;;;7.50;99.90;;;;;;5045542;28;20993;-75
2024/01/01 04:44:04;;;;;;;18.50;2.20;;;7.50;99.90;;;;;;5046612;28;20485;-75
2024/01/01 04:46:31;;;;;;;13.27;4.10;;;7.60;99.90;;;;;;5023045;28;21042;-72
2024/01/01 04:48:57;;;;;;;6.67;2.20;;;7.50;99.90;;;;;;5050306;28;20853;-73
2024/01/01 04:51:24;;;;;;;7.13;1.83;;;7.50;99.90;;;;;;5036841;28;20850;-72
2024/01/01 04:53:52;;;;;;;18.27;4.53;;;7.60;99.90;;;;;;5041378;28;20630;-75
2024/01/01 04:56:21;;;;;;;11.43;3.47;;;7.60;99.90;;;;;;5049605;28;20980;-74
2024/01/01 04:58:49;;;;;;;7.20;2.40;;;7.50;99.90;;;;;;5035460;28;20487;-67
2024/01/01 05:01:16;;;;;;;8.90;2.57;;;7.60;99.90;;;;;;5060587;28;21092;-75
2024/01/01 05:03:43;;;;;;;28.73;3.07;;;7.50;99.90;;;;;;5038403;28;20503;-74
2024/01/01 05:06:10;;;;;;;19.90;3.70;;;7.60;99.90;;;;;;5043870;28;20571;-74
2024/01/01 05:08:36;;;;;;;15.40;2.83;;;7.50;99.90;;;;;;5037684;28;20579;-74
2024/01/01 05:11:05;;;;;;;27.20;2.83;;;7.40;99.90;;;;;;5017342;28;20626;-73
2024/01/01 05:13:32;;;;;;;7.93;2.07;;;7.30;99.90;;;;;;5047504;28;20876;-74
2024/01/01 05:16:00;;;;;;;5.67;1.53;;;7.40;99.90;;;;;;5046387;28;20581;-74
2024/01/01 05:18:28;;;;;;;7.30;2.57;;;7.40;99.90;;;;;;5038948;28;20908;-72
2024/01/01 05:20:55;;;;;;;8.57;1.97;;;7.50;99.90;;;;;;5048272;28;20571;-78
2024/01/01 05:23:22;;;;;;;7.30;2.50;;;7.40;99.90;;;;;;5038899;28;21103;-73
2024/01/01 05:25:49;;;;;;;14.90;3.40;;;7.50;99.90;;;;;;5037527;28;20612;-75
2024/01/01 05:28:16;;;;;;;9.83;2.80;;;7.40;99.90;;;;;;5045322;28;20995;-74
2024/01/01 05:30:43;;;;;;;12.57;1.67;;;7.50;99.90;;;;;;5015509;28;20490;-74
2024/01/01 05:33:11;;;;;;;16.83;3.97;;;7.50;99.90;;;;;;5027018;28;20573;-77
2024/01/01 05:35:39;;;;;;;5.93;2.00;;;7.50;99.90;;;;;;5035883;28;20478;-73
2024/01/01 05:38:06;;;;;;;13.37;3.50;;;7.50;99.90;;;;;;5056764;28;20526;-71
2024/01/01 05:40:32;;;;;;;32.07;4.07;;;7.40;99.90;;;;;;5039134;28;20623;-73
2024/01/01 05:42:59;;;;;;;26.07;4.23;;;7.40;99.90;;;;;;5039913;28;20566;-73
2024/01/01 05:45:26;;;;;;;30.03;3.97;;;7.40;99.90;;;;;;5045419;28;20563;-75
2024/01/01 05:47:53;;;;;;;6.50;1.40;;;7.40;99.90;;;;;;5033323;28;20560;-79
2024/01/01 05:50:21;;;;;;;8.70;2.50;;;7.40;99.90;;;;;;5043583;28;20608;-71
2024/01/01 05:52:48;;;;;;;10.30;2.60;;;7.40;99.90;;;;;;5031308;28;20646;-74
2024/01/01 05:55:16;;;;;;;3.83;1.63;;;7.50;99.90;;;;;;5014136;28;20518;-74
2024/01/01 05:57:43;;;;;;;12.60;3.00;;;7.50;99.90;;;;;;5015707;28;20553;-73
2024/01/01 06:00:12;;;;;;;4.90;1.70;;;7.40;99.90;;;;;;5038400;28;20580;-75
2024/01/01 06:02:39;;;;;;;6.97;2.10;;;7.40;99.90;;;;;;5029946;28;20471;-73
2024/01/01 06:05:06;;;;;;;4.53;1.50;;;7.40;99.90;;;;;;5040652;28;20476;-71
2024/01/01 06:07:34;;;;;;;13.33;2.90;;;7.40;99.90;;;;;;5021021;28;21029;-71
2024/01/01 06:10:02;;;;;;;5.03;2.03;;;7.40;99.90;;;;;;5033512;28;20548;-74
2024/01/01 06:12:29;;;;;;;13.10;3.23;;;7.40;99.90;;;;;;5034476;28;20503;-71
2024/01/01 06:14:58;;;;;;;6.60;1.93;;;7.50;99.90;;;;;;5041774;28;20478;-70
2024/01/01 06:17:24;;;;;;;14.87;2.20;;;7.50;99.90;;;;;;5034655;28;20475;-77
2024/01/01 06:19:51;;;;;;;9.87;2.83;;;7.50;99.90;;;;;;5039086;28;20496;-80
2024/01/01 06:22:18;;;;;;;13.57;2.40;;;7.50;99.90;;;;;;5033756;28;20545;-76
2024/01/01 06:24:46;;;;;;;5.57;2.57;;;7.50;99.90;;;;;;5041484;28;20566;-72
2024/01/01 06:27:13;;;;;;;7.10;2.10;;;7.60;99.90;;;;;;5035703;28;21041;-78
2024/01/01 06:29:40;;;;;;;12.20;2.13;;;7.50;99.90;;;;;;5032853;28;21334;-75
2024/01/01 06:32:07;;;;;;;8.37;1.57;;;7.40;99.90;;;;;;5050591;28;20490;-73
2024/01/01 06:34:34;;;;;;;11.00;3.17;;;7.50;99.90;;;;;;5036212;28;20468;-74
2024/01/01 06:37:01;;;;;;;24.03;3.83;;;7.40;99.90;;;;;;5028149;28;20577;-74
2024/01/01 06:39:27;;;;;;;5.70;2.47;;;7.50;99.90;;;;;;5022753;28;20523;-76
2024/01/01 06:41:56;;;;;;;13.73;1.97;;;7.40;99.90;;;;;;5054489;28;20685;-76
2024/01/01 06:44:25;;;;;;;5.87;2.27;;;7.30;99.90;;;;;;5043697;28;20922;-72
2024/01/01 06:46:52;;;;;;;20.90;2.53;;;;;;;;;;5053037;28;20788;-73
2024/01/01 06:49:19;;;;;;;12.07;3.70;;;7.20;99.90;;;;;;5038280;28;20900;-70
2024/01/01 06:51:50;;;;;;;9.80;2.87;;;7.30;99.90;;;;;;5059677;28;20601;-73
2024/01/01 06:54:17;;;;;;;21.07;3.50;;;7.30;99.90;;;;;;5054843;28;20554;-69
2024/01/01 06:56:44;;;;;;;19.83;2.20;;;7.30;99.90;;;;;;5056347;28;20486;-76
2024/01/01 06:59:13;;;;;;;23.83;2.40;;;7.40;99.90;;;;;;5056276;28;20590;-72
2024/01/01 07:01:41;;;;;;;27.53;3.33;;;7.40;99.90;;;;;;5021045;28;20563;-73
2024/01/01 07:04:08;;;;;;;11.93;2.90;;;7.30;99.90;;;;;;5060267;28;21008;-72
2024/01/01 07:06:35;;;;;;;13.73;3.20;;;7.30;99.90;;;;;;5011543;28;20676;-71
2024/01/01 07:09:02;;;;;;;25.07;3.47;;;7.30;99.90;;;;;;5049658;28;20510;-72
2024/01/01 07:11:29;;;;;;;11.93;3.27;;;7.30;99.90;;;;;;5064499;28;20818;-73
2024/01/01 07:13:56;;;;;;;17.13;3.67;;;7.30;99.90;;;;;;5054578;28;20481;-70
2024/01/01 07:16:24;;;;;;;11.13;3.20;;;7.40;99.90;;;;;;5034858;28;20570;-73
2024/01/01 07:18:51;;;;;;;13.70;3.30;;;7.30;99.90;;;;;;5059142;28;20603;-73
2024/01/01 07:21:18;;;;;;;22.10;2.70;;;7.20;99.90;;;;;;5036655;28;20511;-72
2024/01/01 07:23:45;;;;;;;14.40;3.40;;;7.10;99.90;;;;;;4936313;28;3146838;-72
2024/01/01 07:26:11;;;;;;;11.47;3.70;;;7.30;99.90;;;;;;5011279;28;20685;-73
2024/01/01 07:28:38;;;;;;;18.93;3.27;;;7.30;99.90;;;;;;5035439;28;20575;-73
2024/01/01 07:31:05;;;;;;;19.60;3.53;;;7.30;99.90;;;;;;5038006;28;20574;-71
2024/01/01 07:33:35;;;;;;;16.33;4.00;;;7.30;99.90;;;;;;5020777;28;20511;-71
2024/01/01 07:36:02;;;;;;;7.53;1.87;;;7.30;99.90;;;;;;5036996;28;20873;-73
2024/01/01 07:38:28;;;;;;;19.90;3.40;;;7.30;99.90;;;;;;5032693;28;20987;-72
2024/01/01 07:40:55;;;;;;;10.53;2.87;;;7.30;99.90;;;;;;5049088;28;20932;-75
2024/01/01 07:43:22;;;;;;;5.30;1.67;;;7.40;99.90;;;;;;5045098;28;20563;-73
2024/01/01 07:45:49;;;;;;;8.07;2.00;;;7.40;99.90;;;;;;5036020;28;20573;-68
2024/01/01 07:48:16;;;;;;;14.47;2.43;;;7.40;99.90;;;;;;5036517;28;20570;-74
2024/01/01 07:50:45;;;;;;;11.47;3.77;;;7.60;99.90;;;;;;5037024;28;20481;-74
2024/01/01 07:53:11;;;;;;;13.37;2.40;;;7.50;99.90;;;;;;5041023;28;20514;-74
2024/01/01 07:55:38;;;;;;;12.47;3.00;;;;;;;;;;5027767;28;20488;-73
2024/01/01 07:58:06;;;;;;;2.73;1.47;;;7.50;99.90;;;;;;5024444;28;21014;-76
2024/01/01 08:00:33;;;;;;;7.63;1.60;;;7.60;99.90;;;;;;5027814;28;21417;-74
2024/01/01 08:03:00;;;;;;;28.13;3.27;;;7.50;99.90;;;;;;5019201;28;20571;-72
2024/01/01 08:05:26;;;;;;;7.80;2.47;;;7.50;99.90;;;;;;5048535;28;20507;-71
2024/01/01 08:07:57;;;;;;;7.93;2.80;;;7.40;99.90;;;;;;5027345;28;20561;-70
2024/01/01 08:10:24;;;;;;;10.70;2.03;;;;;;;;;;5053748;28;20478;-72
2024/01/01 08:12:51;;;;;;;13.23;1.70;;;7.40;99.90;;;;;;5048757;28;20891;-73
2024/01/01 08:15:17;;;;;;;9.67;2.40;;;7.50;99.90;;;;;;5025918;28;20515;-72
2024/01/01 08:17:44;;;;;;;11.83;2.40;;;7.50;99.90;;;;;;5049714;28;20507;-72
2024/01/01 08:20:12;;;;;;;7.93;3.33;;;7.40;99.90;;;;;;5026435;28;20582;-74
2024/01/01 08:22:39;;;;;;;10.80;3.13;;;7.40;99.90;;;;;;5015184;28;20507;-75
2024/01/01 08:25:08;;;;;;;14.23;3.07;;;7.50;99.90;;;;;;5031650;28;20557;-70
2024/01/01 08:27:34;;;;;;;12.80;2.27;;;7.50;99.90;;;;;;5053642;28;20577;-74
2024/01/01 08:30:01;;;;;;;4.83;1.67;;;7.60;99.90;;;;;;5041623;28;20595;-76
2024/01/01 08:32:28;;;;;;;18.83;2.63;;;7.50;99.90;;;;;;5042362;28;20468;-73
2024/01/01 08:34:55;;;;;;;3.53;1.10;;;7.60;99.90;;;;;;5055454;28;20478;-78
2024/01/01 08:37:22;;;;;;;19.40;2.50;;;;;;;;;;5045191;28;20566;-70
2024/01/01 08:39:49;;;;;;;7.40;1.77;;;7.50;99.90;;;;;;5018430;28;20480;-72
2024/01/01 08:42:17;;;;;;;5.63;1.90;;;7.60;99.90;;;;;;5043170;28;20523;-75
2024/01/01 08:44:44;;;;;;;11.30;2.77;;;7.50;99.90;;;;;;5029444;28;20510;-73
2024/01/01 08:47:11;;;;;;;19.27;3.00;;;7.60;99.90;;;;;;5028470;28;20629;-73
2024/01/01 08:49:37;;;;;;;17.73;4.00;;;7.60;99.90;;;;;;5040853;28;20566;-73
2024/01/01 08:52:05;;;;;;;3.83;1.33;;;7.60;99.90;;;;;;5031514;28;20571;-71
2024/01/01 08:54:32;;;;;;;4.37;1.57;;;7.50;99.90;;;;;;5034059;28;20559;-74
2024/01/01 08:56:59;;;;;;;6.07;2.27;;;7.50;99.90;;;;;;5039844;28;20559;-73
2024/01/01 08:59:27;;;;;;;6.43;2.73;;;7.40;99.90;;;;;;5041858;28;20819;-73
2024/01/01 09:01:53;;;;;;;14.07;3.20;;;7.50;99.90;;;;;;5017848;28;20935;-75
2024/01/01 09:04:21;;;;;;;13.37;3.03;;;7.40;99.90;;;;;;5036609;28;20934;-72
2024/01/01 09:06:48;;;;;;;6.80;3.40;;;7.40;99.90;;;;;;5016578;28;20491;-77
2024/01/01 09:09:15;;;;;;;5.43;1.70;;;7.50;99.90;;;;;;5048814;28;20493;-77
2024/01/01 09:11:43;;;;;;;8.47;2.23;;;7.50;99.90;;;;;;5039547;28;20581;-75
2024/01/01 09:14:10;;;;;;;9.10;3.00;;;7.60;99.90;;;;;;5034737;28;20483;-74
2024/01/01 09:16:39;;;;;;;8.80;2.80;;;7.60;99.90;;;;;;5034714;28;20510;-72
2024/01/01 09:19:06;;;;;;;12.80;2.37;;;7.60;99.90;;;;;;5036735;28;20495;-75
2024/01/01 09:21:33;;;;;;;14.83;2.83;;;7.60;99.90;;;;;;5065131;28;20547;-73
2024/01/01 09:24:01;;;;;;;17.87;4.27;;;7.70;99.90;;;;;;5041280;28;20835;-74
2024/01/01 09:26:29;;;;;;;5.37;1.60;;;7.70;99.90;;;;;;5047738;28;20559;-71
2024/01/01 09:28:56;;;;;;;10.83;2.50;;;7.80;99.90;;;;;;5033607;28;20484;-76
2024/01/01 09:31:23;;;;;;;9.83;2.80;;;7.80;99.90;;;;;;5040039;28;20507;-74
2024/01/01 09:33:51;;;;;;;7.43;2.17;;;7.90;99.90;;;;;;5003845;28;20589;-72
2024/01/01 09:36:18;;;;;;;5.97;1.77;;;7.90;99.90;;;;;;5051634;28;20550;-72
2024/01/01 09:38:45;;;;;;;14.80;2.87;;;8.00;99.90;;;;;;5050623;28;20481;-79
2024/01/01 09:41:12;;;;;;;7.37;2.27;;;8.00;99.90;;;;;;5045032;28;20549;-78
2024/01/01 09:43:39;;;;;;;6.40;3.00;;;7.90;99.90;;;;;;5049797;28;20606;-71
2024/01/01 09:46:07;;;;;;;20.27;4.50;;;7.90;99.90;;;;;;5046885;28;20991;-72
2024/01/01 09:48:34;;;;;;;9.00;2.70;;;;;;;;;;5020981;28;21567;-76
2024/01/01 09:51:04;;;;;;;8.70;2.73;;;7.90;99.90;;;;;;5036621;28;20513;-75
2024/01/01 09:53:31;;;;;;;21.07;3.40;;;7.90;99.90;;;;;;5038615;28;21210;-77
2024/01/01 09:55:58;;;;;;;7.27;1.60;;;8.10;99.90;;;;;;5035534;28;20562;-77
2024/01/01 09:58:25;;;;;;;14.20;2.13;;;8.20;99.90;;;;;;5000700;28;21051;-77
2024/01/01 10:00:52;;;;;;;4.90;2.50;;;8.40;99.90;;;;;;5033284;28;20541;-74
2024/01/01 10:03:20;;;;;;;14.03;2.43;;;8.60;99.90;;;;;;4998898;28;20993;-78
2024/01/01 10:05:48;;;;;;;13.13;2.40;;;8.70;99.90;;;;;;5036738;28;20475;-72
2024/01/01 10:08:17;;;;;;;15.70;4.10;;;8.40;99.90;;;;;;5046505;28;21141;-74
2024/01/01 10:10:44;;;;;;;2.67;1.33;;;8.40;99.90;;;;;;5039610;28;20962;-77
2024/01/01 10:13:11;;;;;;;11.20;3.13;;;8.50;99.90;;;;;;5038610;28;20551;-75
2024/01/01 10:15:40;;;;;;;7.93;3.83;;;8.50;99.90;;;;;;5042487;28;20499;-76
2024/01/01 10:18:11;;;;;;;9.10;2.83;;;8.30;99.90;;;;;;5042106;28;20496;-74
2024/01/01 10:20:38;;;;;;;19.60;3.80;;;8.30;99.90;;;;;;5029098;28;20471;-73
2024/01/01 10:23:28;;;;;;;18.03;3.50;;;8.40;99.90;;;;;;5066525;28;21252;-74
2024/01/01 10:26:05;;;;;;;9.00;3.47;;;8.30;99.90;;;;;;5042060;28;20509;-71
2024/01/01 10:28:33;;;;;;;17.87;3.53;;;;;;;;;;5053005;28;21021;-73
2024/01/01 10:31:00;;;;;;;11.30;3.33;;;8.20;99.90;;;;;;5041100;28;20548;-74
2024/01/01 10:33:28;;;;;;;19.13;1.70;;;8.30;99.90;;;;;;5020780;28;21148;-75
2024/01/01 10:35:55;;;;;;;6.40;2.20;;;8.20;99.90;;;;;;5050936;28;20483;-76
2024/01/01 10:38:22;;;;;;;8.30;1.80;;;8.20;99.90;;;;;;5048840;28;20530;-80
2024/01/01 10:40:54;;;;;;;9.90;2.40;;;8.40;99.90;;;;;;5051634;28;20499;-75
2024/01/01 10:43:25;;;;;;;13.33;3.67;;;8.30;99.90;;;;;;5029525;28;20516;-74
2024/01/01 10:45:56;;;;;;;11.77;2.27;;;8.30;99.90;;;;;;5041370;28;20562;-73
2024/01/01 10:48:23;;;;;;;13.67;2.63;;;8.40;99.90;;;;;;5041481;28;20685;-74
2024/01/01 10:51:04;;;;;;;6.20;1.30;;;8.40;99.90;;;;;;5031685;28;20636;-77
2024/01/01 10:53:48;;;;;;;2.80;1.67;;;8.50;99.90;;;;;;5024348;28;20562;-77
2024/01/01 10:56:26;;;;;;;31.93;4.83;;;8.40;99.90;;;;;;5033045;28;20941;-73
2024/01/01 10:59:10;;;;;;;8.07;3.20;;;8.50;99.90;;;;;;5040929;28;20505;-75
2024/01/01 11:01:38;;;;;;;23.27;3.47;;;;;;;;;;5033276;28;20483;-74
2024/01/01 11:04:05;;;;;;;6.73;1.30;;;8.60;99.90;;;;;;5033983;28;20977;-79
2024/01/01 11:06:33;;;;;;;11.90;1.87;;;8.70;99.90;;;;;;5040320;28;21086;-72
2024/01/01 11:09:30;;;;;;;8.90;2.13;;;8.60;99.90;;;;;;5046228;28;20544;-76
2024/01/01 11:12:00;;;;;;;8.53;2.53;;;8.50;99.90;;;;;;5066407;28;20540;-72
2024/01/01 11:14:28;;;;;;;5.00;2.03;;;8.50;99.90;;;;;;5057008;28;20487;-74
2024/01/01 11:16:56;;;;;;;6.17;2.17;;;8.60;99.90;;;;;;5051526;28;20511;-72
2024/01/01 11:19:35;;;;;;;14.67;2.23;;;8.60;99.90;;;;;;5066569;28;20553;-77
2024/01/01 11:22:35;;;;;;;17.00;2.97;;;8.50;99.90;;;;;;5050387;28;20497;-76
2024/01/01 11:25:03;;;;;;;7.27;2.10;;;8.60;99.90;;;;;;5039347;28;20482;-75
2024/01/01 11:27:31;;;;;;;5.87;1.90;;;8.70;99.90;;;;;;5045469;28;20548;-75
2024/01/01 11:30:02;;;;;;;11.73;2.60;;;8.90;99.90;;;;;;5059890;28;20486;-77
2024/01/01 11:32:29;;;;;;;11.93;2.90;;;9.00;99.90;;;;;;5037044;28;20474;-73
2024/01/01 11:35:07;;;;;;;14.60;3.83;;;9.10;99.90;;;;;;5028308;28;21035;-72
2024/01/01 11:37:34;;;;;;;26.00;3.40;;;;;;;;;;5012212;28;20561;-76
2024/01/01 11:40:02;;;;;;;15.87;2.13;;;9.20;99.90;;;;;;5028829;28;20549;-74
2024/01/01 11:42:29;;;;;;;11.23;3.10;;;9.20;99.90;;;;;;5031692;28;20485;-74
2024/01/01 11:45:08;;;;;;;11.20;2.63;;;9.30;99.90;;;;;;5048613;28;20567;-77
2024/01/01 11:47:35;;;;;;;5.20;2.53;;;9.30;99.90;;;;;;5026897;28;20563;-73
2024/01/01 11:50:02;;;;;;;28.50;4.73;;;9.20;99.90;;;;;;5058627;28;20564;-72
2024/01/01 11:52:29;;;;;;;11.77;3.10;;;9.30;99.90;;;;;;5038233;28;21234;-75
2024/01/01 11:54:56;;;;;;;6.40;2.07;;;9.40;99.90;;;;;;5037943;28;20575;-74
2024/01/01 11:57:23;;;;;;;20.53;4.13;;;9.50;99.90;;;;;;5042410;28;20487;-71
2024/01/01 11:59:50;;;;;;;10.50;2.37;;;9.60;99.90;;;;;;5057307;28;20888;-79
2024/01/01 12:02:19;;;;;;;6.50;2.87;;;9.70;99.90;;;;;;5028409;28;20947;-76
2024/01/01 12:04:47;;;;;;;5.63;2.07;;;9.50;99.90;;;;;;5041825;28;20502;-79
2024/01/01 12:07:27;;;;;;;12.30;3.50;;;9.20;99.90;;;;;;5051039;28;20527;-75
2024/01/01 12:10:03;;;;;;;12.70;2.20;;;9.20;99.90;;;;;;5048433;28;20493;-72
2024/01/01 12:12:30;;;;;;;7.50;1.53;;;;;;;;;;5033958;28;21249;-77
2024/01/01 12:15:08;;;;;;;4.47;1.80;;;9.40;99.90;;;;;;5044175;28;20561;-76
2024/01/01 12:17:40;;;;;;;19.97;3.20;;;9.30;99.90;;;;;;5046244;28;20474;-72
2024/01/01 12:20:09;;;;;;;7.50;2.10;;;9.20;99.90;;;;;;5028127;28;21050;-77
2024/01/01 12:22:36;;;;;;;12.50;3.00;;;9.30;99.90;;;;;;5064802;28;20471;-74
2024/01/01 12:25:03;;;;;;;13.40;3.87;;;9.30;99.90;;;;;;5058278;28;20558;-76
2024/01/01 12:27:30;;;;;;;21.10;3.00;;;9.40;99.90;;;;;;5028978;28;21062;-76
2024/01/01 12:29:58;;;;;;;9.10;2.47;;;9.60;99.90;;;;;;5042763;28;20487;-76
2024/01/01 12:32:25;;;;;;;5.83;2.63;;;9.60;99.90;;;;;;5055993;28;20471;-76
2024/01/01 12:34:53;;;;;;;20.30;4.27;;;9.60;99.90;;;;;;5047674;28;21006;-80
2024/01/01 12:37:20;;;;;;;4.43;1.83;;;9.40;99.90;;;;;;5059616;28;20502;-74
2024/01/01 12:39:48;;;;;;;7.43;1.30;;;9.40;99.90;;;;;;5058898;28;20517;-71
2024/01/01 12:42:15;;;;;;;16.50;3.20;;;9.40;99.90;;;;;;5053676;28;20828;-72
2024/01/01 12:44:42;;;;;;;7.93;2.50;;;9.50;99.90;;;;;;5061082;28;20578;-77
2024/01/01 12:47:10;;;;;;;14.90;3.07;;;9.60;99.90;;;;;;5061832;28;20473;-77
2024/01/01 12:49:37;;;;;;;8.37;2.33;;;9.60;99.90;;;;;;5045129;28;20565;-78
2024/01/01 12:52:05;;;;;;;18.13;2.97;;;9.60;99.90;;;;;;5067612;28;20514;-77
2024/01/01 12:54:32;;;;;;;11.03;2.63;;;9.50;99.90;;;;;;5046958;28;21552;-75
2024/01/01 12:56:59;;;;;;;11.13;2.20;;;9.70;99.90;;;;;;5035630;28;21043;-80
2024/01/01 12:59:26;;;;;;;15.50;2.53;;;9.80;99.90;;;;;;5045107;28;21208;-78